createdAt,value
2016-06-27T00:00:48.617Z,0
2016-06-27T00:01:48.620Z,0
2016-06-27T00:02:48.590Z,0
2016-06-27T00:03:48.567Z,0
2016-06-27T00:04:48.665Z,0
2016-06-27T00:05:48.570Z,0
2016-06-27T00:06:48.581Z,0
2016-06-27T00:07:48.586Z,0
2016-06-27T00:08:48.577Z,0
2016-06-27T00:09:48.607Z,0
2016-06-27T00:10:48.574Z,0
2016-06-27T00:11:48.657Z,0
2016-06-27T00:12:48.599Z,0
2016-06-27T00:13:48.689Z,0
2016-06-27T00:14:48.634Z,0
2016-06-27T00:15:48.616Z,0
2016-06-27T00:16:48.590Z,0
2016-06-27T00:17:48.962Z,0
2016-06-27T00:18:48.972Z,0
2016-06-27T00:19:48.598Z,0
2016-06-27T00:20:48.651Z,0
2016-06-27T00:21:48.613Z,0
2016-06-27T00:22:48.617Z,0
2016-06-27T00:23:48.857Z,0
2016-06-27T00:24:48.898Z,0
2016-06-27T00:25:49.294Z,0
2016-06-27T00:26:48.598Z,0
2016-06-27T00:27:48.602Z,0
2016-06-27T00:28:48.646Z,0
2016-06-27T00:29:48.659Z,0
2016-06-27T00:30:48.621Z,0
2016-06-27T00:31:48.653Z,0
2016-06-27T00:32:48.636Z,0
2016-06-27T00:33:48.700Z,0
2016-06-27T00:34:48.673Z,0
2016-06-27T00:35:48.674Z,0
2016-06-27T00:36:48.603Z,0
2016-06-27T00:37:48.647Z,0
2016-06-27T00:38:48.598Z,0
2016-06-27T00:39:48.663Z,0
2016-06-27T00:40:48.666Z,0
2016-06-27T00:41:48.622Z,0
2016-06-27T00:42:48.626Z,0
2016-06-27T00:43:48.671Z,0
2016-06-27T00:44:48.610Z,0
2016-06-27T00:45:48.659Z,0
2016-06-27T00:46:48.655Z,0
2016-06-27T00:47:48.679Z,0
2016-06-27T00:48:48.667Z,0
2016-06-27T00:49:48.671Z,0
2016-06-27T00:50:48.625Z,0
2016-06-27T00:51:48.640Z,0
2016-06-27T00:52:48.585Z,0
2016-06-27T00:53:48.623Z,0
2016-06-27T00:54:48.615Z,0
2016-06-27T00:55:48.667Z,0
2016-06-27T00:56:48.613Z,0
2016-06-27T00:57:48.649Z,0
2016-06-27T00:58:48.646Z,0
2016-06-27T00:59:48.691Z,0
2016-06-27T01:00:48.649Z,0
2016-06-27T01:01:48.668Z,0
2016-06-27T01:02:48.962Z,0
2016-06-27T01:03:48.664Z,0
2016-06-27T01:04:48.661Z,0
2016-06-27T01:05:48.708Z,0
2016-06-27T01:06:48.688Z,0
2016-06-27T01:07:48.667Z,0
2016-06-27T01:08:48.601Z,0
2016-06-27T01:09:48.623Z,0
2016-06-27T01:10:48.654Z,0
2016-06-27T01:11:48.651Z,0
2016-06-27T01:12:48.656Z,0
2016-06-27T01:13:48.639Z,0
2016-06-27T01:14:48.636Z,0
2016-06-27T01:15:48.851Z,0
2016-06-27T01:16:48.744Z,0
2016-06-27T01:17:48.633Z,0
2016-06-27T01:18:48.664Z,0
2016-06-27T01:19:48.648Z,0
2016-06-27T01:20:48.654Z,0
2016-06-27T01:21:48.652Z,0
2016-06-27T01:22:48.664Z,0
2016-06-27T01:23:48.629Z,0
2016-06-27T01:24:48.648Z,0
2016-06-27T01:25:48.771Z,0
2016-06-27T01:26:48.701Z,0
2016-06-27T01:27:48.681Z,0
2016-06-27T01:28:48.733Z,0
2016-06-27T01:29:48.662Z,0
2016-06-27T01:30:48.720Z,0
2016-06-27T01:31:48.696Z,0
2016-06-27T01:32:48.690Z,0
2016-06-27T01:33:48.643Z,0
2016-06-27T01:34:49.348Z,0
2016-06-27T01:35:48.692Z,0
2016-06-27T01:36:48.745Z,0
2016-06-27T01:37:48.725Z,0
2016-06-27T01:38:48.695Z,0
2016-06-27T01:39:48.694Z,0
2016-06-27T01:40:48.648Z,0
2016-06-27T01:41:48.668Z,0
2016-06-27T01:42:48.656Z,0
2016-06-27T01:43:49.361Z,0
2016-06-27T01:44:48.679Z,0
2016-06-27T01:45:48.689Z,0
2016-06-27T01:46:48.662Z,0
2016-06-27T01:47:48.638Z,0
2016-06-27T01:48:48.666Z,0
2016-06-27T01:49:48.662Z,0
2016-06-27T01:50:48.683Z,0
2016-06-27T01:51:48.723Z,0
2016-06-27T01:52:49.432Z,0
2016-06-27T01:53:48.699Z,0
2016-06-27T01:54:48.669Z,0
2016-06-27T01:55:48.664Z,0
2016-06-27T01:56:48.703Z,0
2016-06-27T01:57:48.695Z,0
2016-06-27T01:58:48.699Z,0
2016-06-27T01:59:48.718Z,0
2016-06-27T02:00:48.702Z,0
2016-06-27T02:01:49.344Z,0
2016-06-27T02:02:48.680Z,0
2016-06-27T02:03:48.698Z,0
2016-06-27T02:04:48.671Z,0
2016-06-27T02:05:48.661Z,0
2016-06-27T02:06:48.652Z,0
2016-06-27T02:07:48.667Z,0
2016-06-27T02:08:48.685Z,0
2016-06-27T02:09:48.730Z,0
2016-06-27T02:10:48.694Z,0
2016-06-27T02:11:48.674Z,0
2016-06-27T02:12:48.697Z,0
2016-06-27T02:13:48.670Z,0
2016-06-27T02:14:48.701Z,0
2016-06-27T02:15:48.686Z,0
2016-06-27T02:16:48.680Z,0
2016-06-27T02:17:48.666Z,0
2016-06-27T02:18:48.662Z,0
2016-06-27T02:19:49.025Z,0
2016-06-27T02:20:48.702Z,0
2016-06-27T02:21:48.662Z,0
2016-06-27T02:22:48.685Z,0
2016-06-27T02:23:48.683Z,0
2016-06-27T02:24:48.680Z,0
2016-06-27T02:25:48.677Z,0
2016-06-27T02:26:48.770Z,0
2016-06-27T02:27:49.025Z,0
2016-06-27T02:28:48.773Z,0
2016-06-27T02:29:48.701Z,0
2016-06-27T02:30:48.735Z,0
2016-06-27T02:31:48.702Z,0
2016-06-27T02:32:48.691Z,0
2016-06-27T02:33:48.716Z,0
2016-06-27T02:34:48.682Z,0
2016-06-27T02:35:48.730Z,0
2016-06-27T02:36:48.684Z,0
2016-06-27T02:37:48.752Z,0
2016-06-27T02:38:48.719Z,0
2016-06-27T02:39:48.739Z,0
2016-06-27T02:40:48.695Z,0
2016-06-27T02:41:48.697Z,0
2016-06-27T02:42:48.710Z,0
2016-06-27T02:43:48.698Z,0
2016-06-27T02:44:48.670Z,0
2016-06-27T02:45:48.711Z,0
2016-06-27T02:46:49.271Z,0
2016-06-27T02:47:48.770Z,0
2016-06-27T02:48:48.702Z,0
2016-06-27T02:49:48.741Z,0
2016-06-27T02:50:48.724Z,0
2016-06-27T02:51:48.747Z,0
2016-06-27T02:52:48.682Z,0
2016-06-27T02:53:48.738Z,0
2016-06-27T02:54:48.711Z,0
2016-06-27T02:55:48.782Z,0
2016-06-27T02:56:48.724Z,0
2016-06-27T02:57:48.697Z,0
2016-06-27T02:58:48.746Z,0
2016-06-27T02:59:48.725Z,0
2016-06-27T03:00:48.704Z,0
2016-06-27T03:01:48.712Z,0
2016-06-27T03:02:48.727Z,5
2016-06-27T03:03:48.742Z,5
2016-06-27T03:04:48.788Z,5
2016-06-27T03:05:48.723Z,5
2016-06-27T03:06:48.727Z,5
2016-06-27T03:07:48.728Z,5
2016-06-27T03:08:48.791Z,5
2016-06-27T03:09:48.739Z,5
2016-06-27T03:10:48.710Z,5
2016-06-27T03:11:48.742Z,10
2016-06-27T03:12:48.730Z,10
2016-06-27T03:13:48.855Z,10
2016-06-27T03:14:48.731Z,10
2016-06-27T03:15:48.712Z,10
2016-06-27T03:16:48.746Z,10
2016-06-27T03:17:48.704Z,10
2016-06-27T03:18:48.731Z,15
2016-06-27T03:19:48.758Z,15
2016-06-27T03:20:48.783Z,15
2016-06-27T03:21:48.771Z,15
2016-06-27T03:22:48.987Z,15
2016-06-27T03:23:48.735Z,15
2016-06-27T03:24:48.734Z,20
2016-06-27T03:25:48.743Z,20
2016-06-27T03:26:48.742Z,20
2016-06-27T03:27:48.878Z,20
2016-06-27T03:28:48.749Z,25
2016-06-27T03:29:48.784Z,25
2016-06-27T03:30:48.782Z,25
2016-06-27T03:31:48.761Z,25
2016-06-27T03:32:48.743Z,25
2016-06-27T03:33:48.738Z,30
2016-06-27T03:34:48.746Z,30
2016-06-27T03:35:48.751Z,30
2016-06-27T03:36:48.710Z,30
2016-06-27T03:37:48.738Z,30
2016-06-27T03:38:48.746Z,30
2016-06-27T03:39:49.316Z,30
2016-06-27T03:40:48.757Z,35
2016-06-27T03:41:48.740Z,35
2016-06-27T03:42:48.750Z,35
2016-06-27T03:43:48.734Z,40
2016-06-27T03:44:48.757Z,40
2016-06-27T03:45:48.759Z,40
2016-06-27T03:46:48.782Z,40
2016-06-27T03:47:48.760Z,45
2016-06-27T03:48:48.752Z,45
2016-06-27T03:49:48.773Z,50
2016-06-27T03:50:48.762Z,45
2016-06-27T03:51:48.804Z,50
2016-06-27T03:52:48.753Z,50
2016-06-27T03:53:48.850Z,55
2016-06-27T03:54:48.781Z,55
2016-06-27T03:55:48.791Z,55
2016-06-27T03:56:48.823Z,60
2016-06-27T03:57:48.738Z,60
2016-06-27T03:58:49.052Z,60
2016-06-27T03:59:48.801Z,60
2016-06-27T04:00:48.838Z,65
2016-06-27T04:01:49.286Z,65
2016-06-27T04:02:48.773Z,65
2016-06-27T04:03:48.777Z,65
2016-06-27T04:04:48.787Z,65
2016-06-27T04:05:48.764Z,65
2016-06-27T04:06:48.863Z,70
2016-06-27T04:07:48.860Z,70
2016-06-27T04:08:48.837Z,70
2016-06-27T04:09:48.806Z,75
2016-06-27T04:10:48.955Z,75
2016-06-27T04:11:48.858Z,75
2016-06-27T04:12:48.826Z,80
2016-06-27T04:13:48.841Z,80
2016-06-27T04:14:48.771Z,80
2016-06-27T04:15:48.912Z,85
2016-06-27T04:16:48.858Z,85
2016-06-27T04:17:48.811Z,90
2016-06-27T04:18:48.796Z,90
2016-06-27T04:19:48.820Z,90
2016-06-27T04:20:48.808Z,90
2016-06-27T04:21:48.812Z,90
2016-06-27T04:22:48.758Z,95
2016-06-27T04:23:48.762Z,95
2016-06-27T04:24:48.796Z,100
2016-06-27T04:25:49.526Z,105
2016-06-27T04:26:48.758Z,105
2016-06-27T04:27:48.813Z,105
2016-06-27T04:28:48.789Z,110
2016-06-27T04:29:48.818Z,110
2016-06-27T04:30:48.951Z,110
2016-06-27T04:31:48.783Z,110
2016-06-27T04:32:48.822Z,110
2016-06-27T04:33:48.881Z,115
2016-06-27T04:34:48.860Z,115
2016-06-27T04:35:48.807Z,115
2016-06-27T04:36:48.839Z,120
2016-06-27T04:37:48.840Z,120
2016-06-27T04:38:48.812Z,120
2016-06-27T04:39:48.805Z,120
2016-06-27T04:40:48.921Z,130
2016-06-27T04:41:48.809Z,125
2016-06-27T04:42:48.873Z,125
2016-06-27T04:43:48.811Z,130
2016-06-27T04:44:48.845Z,135
2016-06-27T04:45:48.838Z,130
2016-06-27T04:46:48.803Z,130
2016-06-27T04:47:48.820Z,135
2016-06-27T04:48:48.800Z,130
2016-06-27T04:49:48.793Z,135
2016-06-27T04:50:48.812Z,135
2016-06-27T04:51:49.611Z,140
2016-06-27T04:52:48.798Z,140
2016-06-27T04:53:48.806Z,145
2016-06-27T04:54:49.471Z,145
2016-06-27T04:55:48.772Z,150
2016-06-27T04:56:48.817Z,150
2016-06-27T04:57:48.863Z,160
2016-06-27T04:58:48.885Z,170
2016-06-27T04:59:48.827Z,180
2016-06-27T05:00:48.825Z,190
2016-06-27T05:01:48.828Z,215
2016-06-27T05:02:48.851Z,240
2016-06-27T05:03:48.870Z,230
2016-06-27T05:04:48.824Z,250
2016-06-27T05:05:48.814Z,310
2016-06-27T05:06:48.849Z,195
2016-06-27T05:07:48.866Z,180
2016-06-27T05:08:48.883Z,190
2016-06-27T05:09:48.841Z,185
2016-06-27T05:10:48.875Z,170
2016-06-27T05:11:48.796Z,170
2016-06-27T05:12:48.921Z,170
2016-06-27T05:13:48.862Z,170
2016-06-27T05:14:48.845Z,175
2016-06-27T05:15:48.890Z,170
2016-06-27T05:16:48.859Z,175
2016-06-27T05:17:48.842Z,175
2016-06-27T05:18:48.853Z,175
2016-06-27T05:19:48.806Z,180
2016-06-27T05:20:48.830Z,180
2016-06-27T05:21:48.825Z,185
2016-06-27T05:22:48.845Z,180
2016-06-27T05:23:48.810Z,190
2016-06-27T05:24:48.895Z,195
2016-06-27T05:25:48.853Z,195
2016-06-27T05:26:48.842Z,205
2016-06-27T05:27:48.920Z,210
2016-06-27T05:28:49.078Z,210
2016-06-27T05:29:49.869Z,215
2016-06-27T05:30:48.889Z,225
2016-06-27T05:31:48.863Z,245
2016-06-27T05:32:48.882Z,260
2016-06-27T05:33:48.890Z,280
2016-06-27T05:34:48.897Z,310
2016-06-27T05:35:48.881Z,335
2016-06-27T05:36:48.871Z,355
2016-06-27T05:37:48.937Z,350
2016-06-27T05:38:48.898Z,385
2016-06-27T05:39:48.950Z,385
2016-06-27T05:40:48.884Z,415
2016-06-27T05:41:48.966Z,430
2016-06-27T05:42:48.941Z,430
2016-06-27T05:43:48.948Z,485
2016-06-27T05:44:48.878Z,475
2016-06-27T05:45:48.926Z,485
2016-06-27T05:46:48.828Z,490
2016-06-27T05:47:48.921Z,480
2016-06-27T05:48:49.163Z,470
2016-06-27T05:49:48.891Z,500
2016-06-27T05:50:48.856Z,500
2016-06-27T05:51:48.888Z,520
2016-06-27T05:52:49.035Z,480
2016-06-27T05:53:48.873Z,540
2016-06-27T05:54:48.856Z,570
2016-06-27T05:55:49.849Z,585
2016-06-27T05:56:49.357Z,515
2016-06-27T05:57:48.881Z,535
2016-06-27T05:58:48.871Z,595
2016-06-27T05:59:49.949Z,550
2016-06-27T06:00:48.948Z,515
2016-06-27T06:01:48.936Z,465
2016-06-27T06:02:48.922Z,440
2016-06-27T06:03:48.862Z,450
2016-06-27T06:04:48.884Z,520
2016-06-27T06:05:48.891Z,520
2016-06-27T06:06:48.871Z,485
2016-06-27T06:07:48.855Z,495
2016-06-27T06:08:48.936Z,510
2016-06-27T06:09:48.876Z,465
2016-06-27T06:10:48.921Z,395
2016-06-27T06:11:48.917Z,380
2016-06-27T06:12:48.919Z,385
2016-06-27T06:13:49.482Z,375
2016-06-27T06:14:48.934Z,375
2016-06-27T06:15:48.919Z,295
2016-06-27T06:16:48.886Z,350
2016-06-27T06:17:48.909Z,340
2016-06-27T06:18:48.874Z,300
2016-06-27T06:19:48.991Z,350
2016-06-27T06:20:48.885Z,725
2016-06-27T06:21:48.881Z,720
2016-06-27T06:22:48.910Z,500
2016-06-27T06:23:48.939Z,735
2016-06-27T06:24:48.901Z,760
2016-06-27T06:25:48.911Z,1060
2016-06-27T06:26:48.959Z,1100
2016-06-27T06:27:48.909Z,1005
2016-06-27T06:28:48.887Z,1100
2016-06-27T06:29:48.892Z,1150
2016-06-27T06:30:49.274Z,1145
2016-06-27T06:31:48.920Z,1050
2016-06-27T06:32:48.953Z,1030
2016-06-27T06:33:48.903Z,1195
2016-06-27T06:34:48.931Z,1145
2016-06-27T06:35:48.968Z,1140
2016-06-27T06:36:48.943Z,1230
2016-06-27T06:37:48.968Z,905
2016-06-27T06:38:49.019Z,360
2016-06-27T06:39:49.061Z,1145
2016-06-27T06:40:48.975Z,1160
2016-06-27T06:41:48.991Z,1105
2016-06-27T06:42:48.998Z,450
2016-06-27T06:43:49.645Z,740
2016-06-27T06:44:49.071Z,1150
2016-06-27T06:45:48.931Z,280
2016-06-27T06:46:48.980Z,1165
2016-06-27T06:47:49.000Z,460
2016-06-27T06:48:49.639Z,475
2016-06-27T06:49:49.868Z,1195
2016-06-27T06:50:49.896Z,1230
2016-06-27T06:51:49.106Z,1095
2016-06-27T06:52:48.950Z,280
2016-06-27T06:53:48.939Z,255
2016-06-27T06:54:48.920Z,230
2016-06-27T06:55:48.941Z,850
2016-06-27T06:56:48.945Z,345
2016-06-27T06:57:49.634Z,1120
2016-06-27T06:58:48.982Z,1250
2016-06-27T06:59:49.165Z,790
2016-06-27T07:00:49.045Z,1260
2016-06-27T07:01:48.981Z,1210
2016-06-27T07:02:48.965Z,1250
2016-06-27T07:03:49.796Z,265
2016-06-27T07:04:48.986Z,400
2016-06-27T07:05:48.985Z,320
2016-06-27T07:06:48.943Z,1335
2016-06-27T07:07:48.982Z,1280
2016-06-27T07:08:48.948Z,1330
2016-06-27T07:09:48.932Z,1035
2016-06-27T07:10:48.954Z,1305
2016-06-27T07:11:48.968Z,1330
2016-06-27T07:12:48.929Z,1220
2016-06-27T07:13:49.012Z,1365
2016-06-27T07:14:48.959Z,1130
2016-06-27T07:15:49.679Z,1345
2016-06-27T07:16:48.967Z,1350
2016-06-27T07:17:49.200Z,1210
2016-06-27T07:18:48.995Z,1175
2016-06-27T07:19:48.976Z,375
2016-06-27T07:20:48.939Z,370
2016-06-27T07:21:49.029Z,1025
2016-06-27T07:22:48.957Z,830
2016-06-27T07:23:48.932Z,1155
2016-06-27T07:24:49.091Z,1205
2016-06-27T07:25:49.538Z,1295
2016-06-27T07:26:49.055Z,1310
2016-06-27T07:27:48.956Z,765
2016-06-27T07:28:49.092Z,1385
2016-06-27T07:29:48.979Z,1425
2016-06-27T07:30:49.235Z,1415
2016-06-27T07:31:49.143Z,795
2016-06-27T07:32:49.244Z,1435
2016-06-27T07:33:49.163Z,1420
2016-06-27T07:34:49.206Z,1480
2016-06-27T07:35:49.184Z,1530
2016-06-27T07:36:49.463Z,1410
2016-06-27T07:37:49.110Z,1150
2016-06-27T07:38:49.962Z,1490
2016-06-27T07:39:49.150Z,1555
2016-06-27T07:40:49.094Z,1400
2016-06-27T07:41:48.995Z,1555
2016-06-27T07:42:49.003Z,890
2016-06-27T07:43:49.179Z,1620
2016-06-27T07:44:49.256Z,1305
2016-06-27T07:45:49.122Z,1500
2016-06-27T07:46:48.985Z,965
2016-06-27T07:47:49.185Z,930
2016-06-27T07:48:50.220Z,960
2016-06-27T07:49:48.975Z,870
2016-06-27T07:50:49.704Z,785
2016-06-27T07:51:49.165Z,685
2016-06-27T07:52:49.095Z,680
2016-06-27T07:53:49.038Z,615
2016-06-27T07:54:49.190Z,625
2016-06-27T07:55:49.281Z,635
2016-06-27T07:56:49.198Z,610
2016-06-27T07:57:49.244Z,590
2016-06-27T07:58:49.058Z,585
2016-06-27T07:59:49.156Z,555
2016-06-27T08:00:49.047Z,540
2016-06-27T08:01:49.094Z,535
2016-06-27T08:02:48.997Z,545
2016-06-27T08:03:49.053Z,545
2016-06-27T08:04:49.075Z,505
2016-06-27T08:05:49.021Z,545
2016-06-27T08:06:49.275Z,540
2016-06-27T08:07:48.999Z,580
2016-06-27T08:08:49.035Z,620
2016-06-27T08:09:49.103Z,655
2016-06-27T08:10:49.106Z,685
2016-06-27T08:11:49.112Z,630
2016-06-27T08:12:49.075Z,650
2016-06-27T08:13:49.098Z,635
2016-06-27T08:14:49.182Z,630
2016-06-27T08:15:49.118Z,640
2016-06-27T08:16:49.024Z,625
2016-06-27T08:17:49.041Z,640
2016-06-27T08:18:49.063Z,640
2016-06-27T08:19:49.027Z,620
2016-06-27T08:20:49.049Z,615
2016-06-27T08:21:49.031Z,615
2016-06-27T08:22:49.036Z,590
2016-06-27T08:23:49.067Z,585
2016-06-27T08:24:49.007Z,560
2016-06-27T08:25:49.038Z,540
2016-06-27T08:26:49.128Z,525
2016-06-27T08:27:49.033Z,545
2016-06-27T08:28:49.090Z,550
2016-06-27T08:29:49.116Z,525
2016-06-27T08:30:49.182Z,490
2016-06-27T08:31:49.131Z,485
2016-06-27T08:32:49.048Z,470
2016-06-27T08:33:49.039Z,490
2016-06-27T08:34:49.062Z,495
2016-06-27T08:35:49.111Z,505
2016-06-27T08:36:49.137Z,540
2016-06-27T08:37:49.040Z,550
2016-06-27T08:38:49.060Z,555
2016-06-27T08:39:49.078Z,515
2016-06-27T08:40:49.067Z,515
2016-06-27T08:41:49.090Z,510
2016-06-27T08:42:49.094Z,525
2016-06-27T08:43:49.107Z,530
2016-06-27T08:44:49.046Z,535
2016-06-27T08:45:49.122Z,530
2016-06-27T08:46:49.088Z,530
2016-06-27T08:47:49.112Z,535
2016-06-27T08:48:49.099Z,545
2016-06-27T08:49:49.055Z,565
2016-06-27T08:50:49.047Z,580
2016-06-27T08:51:49.052Z,595
2016-06-27T08:52:49.040Z,595
2016-06-27T08:53:49.036Z,600
2016-06-27T08:54:49.071Z,600
2016-06-27T08:55:49.052Z,605
2016-06-27T08:56:49.102Z,600
2016-06-27T08:57:49.079Z,595
2016-06-27T08:58:49.155Z,600
2016-06-27T08:59:49.122Z,585
2016-06-27T09:00:49.052Z,585
2016-06-27T09:01:49.094Z,580
2016-06-27T09:02:49.157Z,575
2016-06-27T09:03:49.131Z,595
2016-06-27T09:04:49.094Z,600
2016-06-27T09:05:49.094Z,575
2016-06-27T09:06:49.156Z,525
2016-06-27T09:07:49.154Z,590
2016-06-27T09:08:49.099Z,630
2016-06-27T09:09:49.111Z,670
2016-06-27T09:10:49.052Z,650
2016-06-27T09:11:49.127Z,595
2016-06-27T09:12:49.077Z,630
2016-06-27T09:13:49.070Z,615
2016-06-27T09:14:49.082Z,615
2016-06-27T09:15:49.099Z,580
2016-06-27T09:16:49.056Z,565
2016-06-27T09:17:49.098Z,595
2016-06-27T09:18:49.057Z,620
2016-06-27T09:19:49.098Z,610
2016-06-27T09:20:49.059Z,605
2016-06-27T09:21:49.076Z,595
2016-06-27T09:22:49.168Z,585
2016-06-27T09:23:49.118Z,600
2016-06-27T09:24:49.121Z,635
2016-06-27T09:25:49.121Z,585
2016-06-27T09:26:49.114Z,595
2016-06-27T09:27:49.071Z,575
2016-06-27T09:28:49.076Z,565
2016-06-27T09:29:49.077Z,570
2016-06-27T09:30:49.085Z,560
2016-06-27T09:31:49.166Z,550
2016-06-27T09:32:49.113Z,555
2016-06-27T09:33:49.744Z,535
2016-06-27T09:34:49.797Z,555
2016-06-27T09:35:49.115Z,595
2016-06-27T09:36:49.100Z,615
2016-06-27T09:37:49.174Z,625
2016-06-27T09:38:49.203Z,600
2016-06-27T09:39:49.227Z,605
2016-06-27T09:40:49.131Z,550
2016-06-27T09:41:49.143Z,525
2016-06-27T09:42:49.142Z,540
2016-06-27T09:43:49.118Z,555
2016-06-27T09:44:49.142Z,540
2016-06-27T09:45:49.101Z,530
2016-06-27T09:46:49.726Z,545
2016-06-27T09:47:49.078Z,530
2016-06-27T09:48:49.734Z,505
2016-06-27T09:49:49.156Z,545
2016-06-27T09:50:49.109Z,560
2016-06-27T09:51:49.216Z,570
2016-06-27T09:52:49.323Z,565
2016-06-27T09:53:49.109Z,585
2016-06-27T09:54:49.131Z,585
2016-06-27T09:55:49.110Z,575
2016-06-27T09:56:49.133Z,585
2016-06-27T09:57:49.162Z,600
2016-06-27T09:58:49.149Z,595
2016-06-27T09:59:49.186Z,525
2016-06-27T10:00:49.153Z,550
2016-06-27T10:01:49.225Z,530
2016-06-27T10:02:49.161Z,500
2016-06-27T10:03:49.143Z,485
2016-06-27T10:04:49.163Z,525
2016-06-27T10:05:49.522Z,545
2016-06-27T10:06:49.415Z,535
2016-06-27T10:07:49.124Z,590
2016-06-27T10:08:49.254Z,645
2016-06-27T10:09:49.284Z,590
2016-06-27T10:10:50.332Z,540
2016-06-27T10:11:49.401Z,455
2016-06-27T10:12:49.141Z,440
2016-06-27T10:13:49.137Z,485
2016-06-27T10:14:49.137Z,560
2016-06-27T10:15:49.139Z,600
2016-06-27T10:16:49.145Z,560
2016-06-27T10:17:49.183Z,545
2016-06-27T10:18:49.199Z,545
2016-06-27T10:19:49.193Z,550
2016-06-27T10:20:50.043Z,545
2016-06-27T10:21:49.145Z,545
2016-06-27T10:22:49.133Z,575
2016-06-27T10:23:49.161Z,520
2016-06-27T10:24:49.178Z,550
2016-06-27T10:25:49.266Z,530
2016-06-27T10:26:50.109Z,485
2016-06-27T10:27:49.135Z,430
2016-06-27T10:28:49.152Z,415
2016-06-27T10:29:49.161Z,440
2016-06-27T10:30:49.190Z,475
2016-06-27T10:31:49.238Z,505
2016-06-27T10:32:49.212Z,560
2016-06-27T10:33:49.239Z,590
2016-06-27T10:34:49.146Z,615
2016-06-27T10:35:49.178Z,575
2016-06-27T10:36:49.160Z,570
2016-06-27T10:37:49.136Z,585
2016-06-27T10:38:49.178Z,590
2016-06-27T10:39:49.252Z,570
2016-06-27T10:40:49.193Z,490
2016-06-27T10:41:49.175Z,480
2016-06-27T10:42:49.188Z,450
2016-06-27T10:43:49.174Z,495
2016-06-27T10:44:49.191Z,520
2016-06-27T10:45:49.194Z,575
2016-06-27T10:46:49.831Z,635
2016-06-27T10:47:49.414Z,655
2016-06-27T10:48:49.228Z,580
2016-06-27T10:49:49.206Z,560
2016-06-27T10:50:49.198Z,565
2016-06-27T10:51:49.729Z,575
2016-06-27T10:52:49.270Z,590
2016-06-27T10:53:49.250Z,635
2016-06-27T10:54:49.226Z,640
2016-06-27T10:55:49.159Z,635
2016-06-27T10:56:49.223Z,620
2016-06-27T10:57:49.235Z,560
2016-06-27T10:58:49.242Z,530
2016-06-27T10:59:49.214Z,530
2016-06-27T11:00:49.206Z,505
2016-06-27T11:01:49.194Z,460
2016-06-27T11:02:49.257Z,445
2016-06-27T11:03:49.279Z,465
2016-06-27T11:04:49.261Z,490
2016-06-27T11:05:49.271Z,480
2016-06-27T11:06:49.223Z,500
2016-06-27T11:07:49.208Z,550
2016-06-27T11:08:49.252Z,575
2016-06-27T11:09:49.470Z,575
2016-06-27T11:10:49.242Z,585
2016-06-27T11:11:49.219Z,605
2016-06-27T11:12:49.238Z,550
2016-06-27T11:13:49.197Z,555
2016-06-27T11:14:49.267Z,540
2016-06-27T11:15:49.980Z,505
2016-06-27T11:16:49.287Z,530
2016-06-27T11:17:49.329Z,460
2016-06-27T11:18:49.206Z,440
2016-06-27T11:19:49.270Z,520
2016-06-27T11:20:49.211Z,605
2016-06-27T11:21:49.284Z,580
2016-06-27T11:22:49.207Z,600
2016-06-27T11:23:49.243Z,600
2016-06-27T11:24:49.195Z,585
2016-06-27T11:25:49.244Z,620
2016-06-27T11:26:49.337Z,600
2016-06-27T11:27:49.254Z,645
2016-06-27T11:28:49.196Z,605
2016-06-27T11:29:49.261Z,565
2016-06-27T11:30:49.233Z,700
2016-06-27T11:31:49.229Z,695
2016-06-27T11:32:49.194Z,690
2016-06-27T11:33:49.222Z,595
2016-06-27T11:34:49.251Z,575
2016-06-27T11:35:49.243Z,565
2016-06-27T11:36:49.305Z,530
2016-06-27T11:37:49.259Z,515
2016-06-27T11:38:49.249Z,530
2016-06-27T11:39:49.245Z,515
2016-06-27T11:40:49.324Z,425
2016-06-27T11:41:49.240Z,380
2016-06-27T11:42:49.346Z,335
2016-06-27T11:43:49.250Z,335
2016-06-27T11:44:49.281Z,320
2016-06-27T11:45:49.324Z,360
2016-06-27T11:46:50.246Z,385
2016-06-27T11:47:49.306Z,460
2016-06-27T11:48:49.257Z,515
2016-06-27T11:49:49.237Z,475
2016-06-27T11:50:49.239Z,430
2016-06-27T11:51:49.321Z,460
2016-06-27T11:52:49.279Z,455
2016-06-27T11:53:49.651Z,395
2016-06-27T11:54:49.338Z,455
2016-06-27T11:55:49.243Z,490
2016-06-27T11:56:49.244Z,460
2016-06-27T11:57:49.271Z,400
2016-06-27T11:58:49.322Z,375
2016-06-27T11:59:49.290Z,345
2016-06-27T12:00:49.249Z,320
2016-06-27T12:01:49.274Z,285
2016-06-27T12:02:49.282Z,270
2016-06-27T12:03:49.270Z,315
2016-06-27T12:04:49.235Z,370
2016-06-27T12:05:49.257Z,400
2016-06-27T12:06:49.248Z,305
2016-06-27T12:07:49.258Z,290
2016-06-27T12:08:49.268Z,275
2016-06-27T12:09:49.283Z,285
2016-06-27T12:10:49.228Z,300
2016-06-27T12:11:49.254Z,285
2016-06-27T12:12:49.277Z,315
2016-06-27T12:13:49.258Z,240
2016-06-27T12:14:49.250Z,245
2016-06-27T12:15:49.324Z,330
2016-06-27T12:16:49.260Z,345
2016-06-27T12:17:49.282Z,360
2016-06-27T12:18:49.280Z,375
2016-06-27T12:19:49.269Z,470
2016-06-27T12:20:49.286Z,540
2016-06-27T12:21:49.275Z,635
2016-06-27T12:22:49.404Z,660
2016-06-27T12:23:49.317Z,630
2016-06-27T12:24:49.250Z,635
2016-06-27T12:25:49.326Z,605
2016-06-27T12:26:49.454Z,585
2016-06-27T12:27:49.286Z,575
2016-06-27T12:28:49.289Z,580
2016-06-27T12:29:49.422Z,575
2016-06-27T12:30:49.380Z,555
2016-06-27T12:31:49.486Z,550
2016-06-27T12:32:49.282Z,535
2016-06-27T12:33:49.431Z,545
2016-06-27T12:34:49.293Z,500
2016-06-27T12:35:49.391Z,535
2016-06-27T12:36:50.135Z,520
2016-06-27T12:37:49.673Z,545
2016-06-27T12:38:49.355Z,565
2016-06-27T12:39:49.451Z,530
2016-06-27T12:40:49.344Z,500
2016-06-27T12:41:49.354Z,470
2016-06-27T12:42:49.370Z,450
2016-06-27T12:43:49.353Z,490
2016-06-27T12:44:49.425Z,460
2016-06-27T12:45:49.343Z,340
2016-06-27T12:46:49.270Z,475
2016-06-27T12:47:49.302Z,475
2016-06-27T12:48:49.325Z,510
2016-06-27T12:49:49.283Z,430
2016-06-27T12:50:49.287Z,450
2016-06-27T12:51:49.877Z,420
2016-06-27T12:52:49.305Z,390
2016-06-27T12:53:49.325Z,335
2016-06-27T12:54:49.338Z,275
2016-06-27T12:55:49.288Z,255
2016-06-27T12:56:49.382Z,215
2016-06-27T12:57:49.308Z,210
2016-06-27T12:58:49.934Z,235
2016-06-27T12:59:49.657Z,275
2016-06-27T13:00:49.362Z,265
2016-06-27T13:01:49.339Z,280
2016-06-27T13:02:49.354Z,300
2016-06-27T13:03:49.322Z,325
2016-06-27T13:04:49.315Z,355
2016-06-27T13:05:49.335Z,340
2016-06-27T13:06:49.318Z,295
2016-06-27T13:07:49.552Z,275
2016-06-27T13:08:49.592Z,315
2016-06-27T13:09:50.263Z,340
2016-06-27T13:10:49.443Z,355
2016-06-27T13:11:49.446Z,420
2016-06-27T13:12:49.465Z,450
2016-06-27T13:13:49.989Z,445
2016-06-27T13:14:49.467Z,460
2016-06-27T13:15:49.422Z,500
2016-06-27T13:16:49.425Z,525
2016-06-27T13:17:49.405Z,485
2016-06-27T13:18:49.459Z,510
2016-06-27T13:19:49.442Z,530
2016-06-27T13:20:49.394Z,610
2016-06-27T13:21:49.384Z,560
2016-06-27T13:22:49.399Z,430
2016-06-27T13:23:49.401Z,335
2016-06-27T13:24:49.804Z,310
2016-06-27T13:25:49.371Z,320
2016-06-27T13:26:49.316Z,295
2016-06-27T13:27:49.390Z,240
2016-06-27T13:28:49.391Z,195
2016-06-27T13:29:49.396Z,190
2016-06-27T13:30:49.439Z,185
2016-06-27T13:31:49.414Z,205
2016-06-27T13:32:49.320Z,230
2016-06-27T13:33:49.425Z,205
2016-06-27T13:34:49.377Z,225
2016-06-27T13:35:49.352Z,225
2016-06-27T13:36:49.394Z,205
2016-06-27T13:37:49.438Z,230
2016-06-27T13:38:49.376Z,255
2016-06-27T13:39:49.463Z,255
2016-06-27T13:40:49.417Z,205
2016-06-27T13:41:49.778Z,190
2016-06-27T13:42:49.730Z,185
2016-06-27T13:43:49.507Z,160
2016-06-27T13:44:49.408Z,145
2016-06-27T13:45:49.467Z,130
2016-06-27T13:46:49.412Z,120
2016-06-27T13:47:49.904Z,145
2016-06-27T13:48:49.467Z,170
2016-06-27T13:49:49.400Z,210
2016-06-27T13:50:49.472Z,220
2016-06-27T13:51:49.421Z,230
2016-06-27T13:52:49.501Z,235
2016-06-27T13:53:49.470Z,210
2016-06-27T13:54:49.485Z,235
2016-06-27T13:55:50.291Z,205
2016-06-27T13:56:49.434Z,200
2016-06-27T13:57:49.444Z,195
2016-06-27T13:58:49.449Z,145
2016-06-27T13:59:49.455Z,155